»·PEaware :: N316AS KBUR-KCNO

N316AS :: KBUR-KCNO

FLIGHT INFORMATION

Flight Status: Arrived
Operator: Privately registered:
United States
More flights under this callsign
Pilot: Aero Safety Training (369)
Aircraft: CESSNA 172 SKYHAWK
(C172)
More flights by this aircraft type
Origin: KBUR Bob Hope-Burbank
United States
Destination: KCNO Chino
United States
More flights between these airports :: More routes between these airports
Route: +ELMOO6 ELMOO V186 PDZ
File this flight plan on PilotEdge
Remarks: requesting ILS 8 VOR 8 GPS A into KBUR
Altitude:
(Current/Filed)
6,000ft
Speed:
(Current/Filed)
105kts
Departed: 25-Oct-14 08:07 AM
Arrived: 25-Oct-14 08:43 AM
Distance/Time
Traveled:
38nm/0:36
Distance/Time
To Go:
Arrived

Flight Plot

Page will automatically refresh every two minutes.

Flight plan parsing failed; only flown route is shown


Map Options




Map Legend


Flown Route
Filed Route
Departure Airport
Arrival Airport
Navaid (VOR, NDB)
Fix

Horizontal Profiles

Position Reports

Time Latitude Longitude Heading Altitude Ground
Speed
25-Oct-14 07:41 34.199920 -118.359610 75 781ft 0kts
25-Oct-14 07:42 34.199921 -118.359608 75 781ft 0kts
25-Oct-14 07:43 34.199921 -118.359606 75 781ft 0kts
25-Oct-14 07:44 34.199922 -118.359604 75 781ft 0kts
25-Oct-14 07:45 34.199922 -118.359602 75 781ft 0kts
25-Oct-14 07:46 34.199922 -118.359600 75 781ft 0kts
25-Oct-14 07:47 34.199923 -118.359598 75 781ft 0kts
25-Oct-14 07:48 34.199923 -118.359596 75 781ft 0kts
25-Oct-14 07:49 34.199924 -118.359594 75 781ft 0kts
25-Oct-14 07:50 34.199924 -118.359591 75 781ft 0kts
25-Oct-14 07:51 34.199925 -118.359589 75 781ft 0kts
25-Oct-14 07:52 34.199925 -118.359587 75 781ft 0kts
25-Oct-14 07:53 34.199925 -118.359585 75 781ft 0kts
25-Oct-14 07:54 34.199926 -118.359583 75 781ft 0kts
25-Oct-14 07:55 34.199926 -118.359581 75 781ft 0kts
25-Oct-14 07:56 34.199927 -118.359579 75 781ft 0kts
25-Oct-14 07:57 34.199927 -118.359577 75 781ft 0kts
25-Oct-14 07:58 34.199928 -118.359575 75 781ft 0kts
25-Oct-14 07:59 34.199928 -118.359573 75 781ft 0kts
25-Oct-14 08:00 34.199928 -118.359571 75 781ft 0kts
25-Oct-14 08:01 34.199282 -118.358011 15 781ft 12kts
25-Oct-14 08:02 34.205434 -118.359560 346 781ft 27kts
25-Oct-14 08:03 34.211969 -118.361103 67 781ft 0kts
25-Oct-14 08:04 34.211970 -118.361101 67 781ft 0kts
25-Oct-14 08:05 34.211970 -118.361099 67 781ft 0kts
25-Oct-14 08:06 34.203642 -118.357809 162 964ft 69kts
25-Oct-14 08:07 34.188627 -118.343315 118 1708ft 75kts
25-Oct-14 08:08 34.176833 -118.319108 121 2649ft 85kts
25-Oct-14 08:09 34.164665 -118.295929 121 3554ft 84kts
25-Oct-14 08:10 34.156067 -118.269347 108 4394ft 83kts
25-Oct-14 08:11 34.147932 -118.242687 107 5069ft 92kts
25-Oct-14 08:12 34.137280 -118.209141 111 5040ft 112kts
25-Oct-14 08:13 34.127414 -118.174219 108 5012ft 111kts
25-Oct-14 08:14 34.116764 -118.139370 110 4998ft 109kts
25-Oct-14 08:15 34.106017 -118.104918 110 5000ft 109kts
25-Oct-14 08:16 34.095249 -118.070400 110 5000ft 109kts
25-Oct-14 08:17 34.084640 -118.035882 110 5000ft 109kts
25-Oct-14 08:18 34.074017 -118.001262 110 5000ft 110kts
25-Oct-14 08:19 34.063378 -117.966624 110 5000ft 110kts
25-Oct-14 08:20 34.052701 -117.931902 110 5000ft 110kts
25-Oct-14 08:21 34.042051 -117.897307 110 5000ft 110kts
25-Oct-14 08:22 34.031383 -117.862697 110 5000ft 110kts
25-Oct-14 08:23 34.022474 -117.833825 110 5000ft 110kts
25-Oct-14 08:24 34.016955 -117.799806 92 4846ft 98kts
25-Oct-14 08:25 34.014669 -117.759551 93 4044ft 103kts
25-Oct-14 08:26 34.013032 -117.729795 93 4083ft 110kts
25-Oct-14 08:27 34.010913 -117.692250 91 4032ft 107kts
25-Oct-14 08:28 34.010022 -117.655584 92 3986ft 109kts
25-Oct-14 08:29 34.009250 -117.619458 89 4004ft 106kts
25-Oct-14 08:30 34.009110 -117.583658 89 4013ft 105kts
25-Oct-14 08:31 34.009016 -117.548380 93 4017ft 106kts
25-Oct-14 08:32 34.007178 -117.513113 94 4032ft 106kts
25-Oct-14 08:33 34.005666 -117.477231 91 4028ft 106kts
25-Oct-14 08:34 34.004390 -117.441360 92 4019ft 107kts
25-Oct-14 08:35 33.985884 -117.431104 239 4018ft 105kts
25-Oct-14 08:36 33.977125 -117.462511 270 3902ft 93kts
25-Oct-14 08:37 33.978127 -117.495897 266 3166ft 106kts
25-Oct-14 08:38 33.976954 -117.527722 271 2638ft 88kts
25-Oct-14 08:39 33.976583 -117.559062 269 1864ft 94kts
25-Oct-14 08:40 33.976445 -117.589596 271 1354ft 95kts
25-Oct-14 08:41 33.975986 -117.620926 267 875ft 93kts
25-Oct-14 08:42 33.976010 -117.637661 10 655ft 9kts
25-Oct-14 08:43 33.976713 -117.636851 39 655ft 0kts
25-Oct-14 08:44 33.978095 -117.636633 181 655ft 0kts
25-Oct-14 08:45 33.978094 -117.636633 181 655ft 0kts

Navigation Log

Ident Type
Flight plan parsing failed, navigation log unavailable